sensor_id;sensor_type;location;lat;lon;timestamp;temperature;humidity
24772;DHT22;12870;52.274;9.754;2024-01-30T00:01:02;7.60;99.90
24772;DHT22;12870;52.274;9.754;2024-01-30T00:03:28;7.60;99.90
24772;DHT22;12870;52.274;9.754;2024-01-30T00:05:55;7.70;99.90
24772;DHT22;12870;52.274;9.754;2024-01-30T00:08:20;7.70;99.90
24772;DHT22;12870;52.274;9.754;2024-01-30T00:10:46;7.60;99.90
24772;DHT22;12870;52.274;9.754;2024-01-30T00:13:11;7.70;99.90
24772;DHT22;12870;52.274;9.754;2024-01-30T00:15:40;7.60;99.90
24772;DHT22;12870;52.274;9.754;2024-01-30T00:18:05;7.70;99.90
24772;DHT22;12870;52.274;9.754;2024-01-30T00:20:31;7.70;99.90
24772;DHT22;12870;52.274;9.754;2024-01-30T00:22:57;7.70;99.90
24772;DHT22;12870;52.274;9.754;2024-01-30T00:25:22;7.70;99.90
24772;DHT22;12870;52.274;9.754;2024-01-30T00:27:48;7.70;99.90
24772;DHT22;12870;52.274;9.754;2024-01-30T00:30:14;7.60;99.90
24772;DHT22;12870;52.274;9.754;2024-01-30T00:32:39;7.60;99.90
24772;DHT22;12870;52.274;9.754;2024-01-30T00:35:05;7.50;99.90
24772;DHT22;12870;52.274;9.754;2024-01-30T00:37:31;7.50;99.90
24772;DHT22;12870;52.274;9.754;2024-01-30T00:39:57;7.50;99.90
24772;DHT22;12870;52.274;9.754;2024-01-30T00:42:22;7.40;99.90
24772;DHT22;12870;52.274;9.754;2024-01-30T00:44:49;7.40;99.90
24772;DHT22;12870;52.274;9.754;2024-01-30T00:47:15;7.30;99.90
24772;DHT22;12870;52.274;9.754;2024-01-30T00:49:40;7.30;99.90
24772;DHT22;12870;52.274;9.754;2024-01-30T00:52:06;7.30;99.90
24772;DHT22;12870;52.274;9.754;2024-01-30T00:54:31;7.30;99.90
24772;DHT22;12870;52.274;9.754;2024-01-30T00:56:57;7.30;99.90
24772;DHT22;12870;52.274;9.754;2024-01-30T00:59:22;7.20;99.90
24772;DHT22;12870;52.274;9.754;2024-01-30T01:01:48;7.20;99.90
24772;DHT22;12870;52.274;9.754;2024-01-30T01:04:13;7.20;99.90
24772;DHT22;12870;52.274;9.754;2024-01-30T01:06:39;7.20;99.90
24772;DHT22;12870;52.274;9.754;2024-01-30T01:09:07;7.20;99.90
24772;DHT22;12870;52.274;9.754;2024-01-30T01:11:33;7.20;99.90
24772;DHT22;12870;52.274;9.754;2024-01-30T01:13:59;7.20;99.90
24772;DHT22;12870;52.274;9.754;2024-01-30T01:16:24;7.20;99.90
24772;DHT22;12870;52.274;9.754;2024-01-30T01:18:50;7.20;99.90
24772;DHT22;12870;52.274;9.754;2024-01-30T01:21:15;7.20;99.90
24772;DHT22;12870;52.274;9.754;2024-01-30T01:23:40;7.30;99.90
24772;DHT22;12870;52.274;9.754;2024-01-30T01:26:07;7.20;99.90
24772;DHT22;12870;52.274;9.754;2024-01-30T01:28:35;7.30;99.90
24772;DHT22;12870;52.274;9.754;2024-01-30T01:31:00;7.30;99.90
24772;DHT22;12870;52.274;9.754;2024-01-30T01:33:33;7.40;99.90
24772;DHT22;12870;52.274;9.754;2024-01-30T01:36:00;7.40;99.90
24772;DHT22;12870;52.274;9.754;2024-01-30T01:38:28;7.40;99.90
24772;DHT22;12870;52.274;9.754;2024-01-30T01:40:53;7.40;99.90
24772;DHT22;12870;52.274;9.754;2024-01-30T01:43:19;7.40;99.90
24772;DHT22;12870;52.274;9.754;2024-01-30T01:45:45;7.40;99.90
24772;DHT22;12870;52.274;9.754;2024-01-30T01:48:11;7.50;99.90
24772;DHT22;12870;52.274;9.754;2024-01-30T01:50:38;7.50;99.90
24772;DHT22;12870;52.274;9.754;2024-01-30T01:53:05;7.60;99.90
24772;DHT22;12870;52.274;9.754;2024-01-30T01:55:31;7.60;99.90
24772;DHT22;12870;52.274;9.754;2024-01-30T01:57:57;7.60;99.90
24772;DHT22;12870;52.274;9.754;2024-01-30T02:00:23;7.60;99.90
24772;DHT22;12870;52.274;9.754;2024-01-30T02:02:50;7.60;99.90
24772;DHT22;12870;52.274;9.754;2024-01-30T02:05:16;7.60;99.90
24772;DHT22;12870;52.274;9.754;2024-01-30T02:07:42;7.60;99.90
24772;DHT22;12870;52.274;9.754;2024-01-30T02:10:08;7.60;99.90
24772;DHT22;12870;52.274;9.754;2024-01-30T02:12:35;7.60;99.90
24772;DHT22;12870;52.274;9.754;2024-01-30T02:15:00;7.60;99.90
24772;DHT22;12870;52.274;9.754;2024-01-30T02:17:26;7.60;99.90
24772;DHT22;12870;52.274;9.754;2024-01-30T02:19:52;7.60;99.90
24772;DHT22;12870;52.274;9.754;2024-01-30T02:22:18;7.60;99.90
24772;DHT22;12870;52.274;9.754;2024-01-30T02:24:44;7.50;99.90
24772;DHT22;12870;52.274;9.754;2024-01-30T02:27:10;7.50;99.90
24772;DHT22;12870;52.274;9.754;2024-01-30T02:29:35;7.40;99.90
24772;DHT22;12870;52.274;9.754;2024-01-30T02:32:01;7.40;99.90
24772;DHT22;12870;52.274;9.754;2024-01-30T02:34:27;7.40;99.90
24772;DHT22;12870;52.274;9.754;2024-01-30T02:36:52;7.40;99.90
24772;DHT22;12870;52.274;9.754;2024-01-30T02:39:18;7.40;99.90
24772;DHT22;12870;52.274;9.754;2024-01-30T02:41:43;7.40;99.90
24772;DHT22;12870;52.274;9.754;2024-01-30T02:44:09;7.30;99.90
24772;DHT22;12870;52.274;9.754;2024-01-30T02:46:35;7.30;99.90
24772;DHT22;12870;52.274;9.754;2024-01-30T02:49:00;7.30;99.90
24772;DHT22;12870;52.274;9.754;2024-01-30T02:51:26;7.30;99.90
24772;DHT22;12870;52.274;9.754;2024-01-30T02:53:51;7.30;99.90
24772;DHT22;12870;52.274;9.754;2024-01-30T02:56:17;7.30;99.90
24772;DHT22;12870;52.274;9.754;2024-01-30T02:58:43;7.30;99.90
24772;DHT22;12870;52.274;9.754;2024-01-30T03:01:08;7.20;99.90
24772;DHT22;12870;52.274;9.754;2024-01-30T03:03:34;7.20;99.90
24772;DHT22;12870;52.274;9.754;2024-01-30T03:06:01;7.20;99.90
24772;DHT22;12870;52.274;9.754;2024-01-30T03:08:27;7.20;99.90
24772;DHT22;12870;52.274;9.754;2024-01-30T03:10:52;7.10;99.90
24772;DHT22;12870;52.274;9.754;2024-01-30T03:13:18;7.10;99.90
24772;DHT22;12870;52.274;9.754;2024-01-30T03:15:44;7.10;99.90
24772;DHT22;12870;52.274;9.754;2024-01-30T03:18:09;7.10;99.90
24772;DHT22;12870;52.274;9.754;2024-01-30T03:20:35;7.10;99.90
24772;DHT22;12870;52.274;9.754;2024-01-30T03:23:00;7.20;99.90
24772;DHT22;12870;52.274;9.754;2024-01-30T03:25:26;7.20;99.90
24772;DHT22;12870;52.274;9.754;2024-01-30T03:27:52;7.20;99.90
24772;DHT22;12870;52.274;9.754;2024-01-30T03:30:17;7.20;99.90
24772;DHT22;12870;52.274;9.754;2024-01-30T03:32:43;7.20;99.90
24772;DHT22;12870;52.274;9.754;2024-01-30T03:35:09;7.20;99.90
24772;DHT22;12870;52.274;9.754;2024-01-30T03:37:35;7.20;99.90
24772;DHT22;12870;52.274;9.754;2024-01-30T03:40:01;7.20;99.90
24772;DHT22;12870;52.274;9.754;2024-01-30T03:42:28;7.10;99.90
24772;DHT22;12870;52.274;9.754;2024-01-30T03:44:53;7.10;99.90
24772;DHT22;12870;52.274;9.754;2024-01-30T03:47:20;7.10;99.90
24772;DHT22;12870;52.274;9.754;2024-01-30T03:49:46;7.20;99.90
24772;DHT22;12870;52.274;9.754;2024-01-30T03:52:11;7.20;99.90
24772;DHT22;12870;52.274;9.754;2024-01-30T03:54:37;7.20;99.90
24772;DHT22;12870;52.274;9.754;2024-01-30T03:57:02;7.20;99.90
24772;DHT22;12870;52.274;9.754;2024-01-30T03:59:28;7.20;99.90
24772;DHT22;12870;52.274;9.754;2024-01-30T04:01:54;7.20;99.90
24772;DHT22;12870;52.274;9.754;2024-01-30T04:04:20;7.20;99.90
24772;DHT22;12870;52.274;9.754;2024-01-30T04:06:46;7.20;99.90
24772;DHT22;12870;52.274;9.754;2024-01-30T04:09:12;7.20;99.90
24772;DHT22;12870;52.274;9.754;2024-01-30T04:11:38;7.20;99.90
24772;DHT22;12870;52.274;9.754;2024-01-30T04:14:04;7.10;99.90
24772;DHT22;12870;52.274;9.754;2024-01-30T04:16:30;7.00;99.90
24772;DHT22;12870;52.274;9.754;2024-01-30T04:18:55;7.00;99.90
24772;DHT22;12870;52.274;9.754;2024-01-30T04:21:21;6.90;99.90
24772;DHT22;12870;52.274;9.754;2024-01-30T04:23:48;6.80;99.90
24772;DHT22;12870;52.274;9.754;2024-01-30T04:26:14;6.90;99.90
24772;DHT22;12870;52.274;9.754;2024-01-30T04:28:41;6.80;99.90
24772;DHT22;12870;52.274;9.754;2024-01-30T04:31:07;6.70;99.90
24772;DHT22;12870;52.274;9.754;2024-01-30T04:33:32;6.70;99.90
24772;DHT22;12870;52.274;9.754;2024-01-30T04:35:58;6.70;99.90
24772;DHT22;12870;52.274;9.754;2024-01-30T04:38:23;6.70;99.90
24772;DHT22;12870;52.274;9.754;2024-01-30T04:40:49;6.80;99.90
24772;DHT22;12870;52.274;9.754;2024-01-30T04:43:14;6.70;99.90
24772;DHT22;12870;52.274;9.754;2024-01-30T04:45:41;6.80;99.90
24772;DHT22;12870;52.274;9.754;2024-01-30T04:48:07;6.80;99.90
24772;DHT22;12870;52.274;9.754;2024-01-30T04:50:32;6.80;99.90
24772;DHT22;12870;52.274;9.754;2024-01-30T04:52:58;6.80;99.90
24772;DHT22;12870;52.274;9.754;2024-01-30T04:55:23;6.80;99.90
24772;DHT22;12870;52.274;9.754;2024-01-30T04:57:49;6.80;99.90
24772;DHT22;12870;52.274;9.754;2024-01-30T05:00:15;6.80;99.90
24772;DHT22;12870;52.274;9.754;2024-01-30T05:02:41;6.80;99.90
24772;DHT22;12870;52.274;9.754;2024-01-30T05:05:06;6.80;99.90
24772;DHT22;12870;52.274;9.754;2024-01-30T05:07:33;6.80;99.90
24772;DHT22;12870;52.274;9.754;2024-01-30T05:09:58;6.80;99.90
24772;DHT22;12870;52.274;9.754;2024-01-30T05:12:24;6.90;99.90
24772;DHT22;12870;52.274;9.754;2024-01-30T05:14:49;6.90;99.90
24772;DHT22;12870;52.274;9.754;2024-01-30T05:17:15;6.90;99.90
24772;DHT22;12870;52.274;9.754;2024-01-30T05:19:40;6.80;99.90
24772;DHT22;12870;52.274;9.754;2024-01-30T05:22:06;6.80;99.90
24772;DHT22;12870;52.274;9.754;2024-01-30T05:24:32;6.80;99.90
24772;DHT22;12870;52.274;9.754;2024-01-30T05:26:57;6.80;99.90
24772;DHT22;12870;52.274;9.754;2024-01-30T05:29:23;6.80;99.90
24772;DHT22;12870;52.274;9.754;2024-01-30T05:31:49;6.70;99.90
24772;DHT22;12870;52.274;9.754;2024-01-30T05:34:15;6.70;99.90
24772;DHT22;12870;52.274;9.754;2024-01-30T05:36:41;6.80;99.90
24772;DHT22;12870;52.274;9.754;2024-01-30T05:39:06;6.80;99.90
24772;DHT22;12870;52.274;9.754;2024-01-30T05:41:32;6.80;99.90
24772;DHT22;12870;52.274;9.754;2024-01-30T05:43:58;6.80;99.90
24772;DHT22;12870;52.274;9.754;2024-01-30T05:46:23;6.80;99.90
24772;DHT22;12870;52.274;9.754;2024-01-30T05:48:49;6.80;99.90
24772;DHT22;12870;52.274;9.754;2024-01-30T05:51:14;6.90;99.90
24772;DHT22;12870;52.274;9.754;2024-01-30T05:53:40;6.90;99.90
24772;DHT22;12870;52.274;9.754;2024-01-30T05:56:06;6.90;99.90
24772;DHT22;12870;52.274;9.754;2024-01-30T05:58:31;6.90;99.90
24772;DHT22;12870;52.274;9.754;2024-01-30T06:00:57;6.90;99.90
24772;DHT22;12870;52.274;9.754;2024-01-30T06:03:23;6.90;99.90
24772;DHT22;12870;52.274;9.754;2024-01-30T06:05:49;6.90;99.90
24772;DHT22;12870;52.274;9.754;2024-01-30T06:08:14;6.90;99.90
24772;DHT22;12870;52.274;9.754;2024-01-30T06:10:40;6.80;99.90
24772;DHT22;12870;52.274;9.754;2024-01-30T06:13:06;6.80;99.90
24772;DHT22;12870;52.274;9.754;2024-01-30T06:15:31;6.80;99.90
24772;DHT22;12870;52.274;9.754;2024-01-30T06:17:58;6.80;99.90
24772;DHT22;12870;52.274;9.754;2024-01-30T06:20:24;6.80;99.90
24772;DHT22;12870;52.274;9.754;2024-01-30T06:22:49;6.80;99.90
24772;DHT22;12870;52.274;9.754;2024-01-30T06:25:15;6.80;99.90
24772;DHT22;12870;52.274;9.754;2024-01-30T06:27:42;6.80;99.90
24772;DHT22;12870;52.274;9.754;2024-01-30T06:30:08;6.80;99.90
24772;DHT22;12870;52.274;9.754;2024-01-30T06:32:34;6.80;99.90
24772;DHT22;12870;52.274;9.754;2024-01-30T06:35:01;6.70;99.90
24772;DHT22;12870;52.274;9.754;2024-01-30T06:37:27;6.70;99.90
24772;DHT22;12870;52.274;9.754;2024-01-30T06:39:52;6.60;99.90
24772;DHT22;12870;52.274;9.754;2024-01-30T06:42:18;6.60;99.90
24772;DHT22;12870;52.274;9.754;2024-01-30T06:44:44;6.60;99.90
24772;DHT22;12870;52.274;9.754;2024-01-30T06:47:10;6.60;99.90
24772;DHT22;12870;52.274;9.754;2024-01-30T06:49:36;6.60;99.90
24772;DHT22;12870;52.274;9.754;2024-01-30T06:52:07;6.60;99.90
24772;DHT22;12870;52.274;9.754;2024-01-30T06:54:33;6.60;99.90
24772;DHT22;12870;52.274;9.754;2024-01-30T06:56:59;6.60;99.90
24772;DHT22;12870;52.274;9.754;2024-01-30T06:59:24;6.70;99.90
24772;DHT22;12870;52.274;9.754;2024-01-30T07:01:50;6.70;99.90
24772;DHT22;12870;52.274;9.754;2024-01-30T07:04:15;6.70;99.90
24772;DHT22;12870;52.274;9.754;2024-01-30T07:06:42;6.70;99.90
24772;DHT22;12870;52.274;9.754;2024-01-30T07:09:07;6.70;99.90
24772;DHT22;12870;52.274;9.754;2024-01-30T07:11:33;6.70;99.90
24772;DHT22;12870;52.274;9.754;2024-01-30T07:13:59;6.60;99.90
24772;DHT22;12870;52.274;9.754;2024-01-30T07:16:25;6.60;99.90
24772;DHT22;12870;52.274;9.754;2024-01-30T07:18:50;6.60;99.90
24772;DHT22;12870;52.274;9.754;2024-01-30T07:21:16;6.50;99.90
24772;DHT22;12870;52.274;9.754;2024-01-30T07:23:42;6.50;99.90
24772;DHT22;12870;52.274;9.754;2024-01-30T07:26:08;6.50;99.90
24772;DHT22;12870;52.274;9.754;2024-01-30T07:28:35;6.60;99.90
24772;DHT22;12870;52.274;9.754;2024-01-30T07:31:01;6.60;99.90
24772;DHT22;12870;52.274;9.754;2024-01-30T07:33:27;6.60;99.90
24772;DHT22;12870;52.274;9.754;2024-01-30T07:35:53;6.60;99.90
24772;DHT22;12870;52.274;9.754;2024-01-30T07:38:19;6.60;99.90
24772;DHT22;12870;52.274;9.754;2024-01-30T07:40:45;6.60;99.90
24772;DHT22;12870;52.274;9.754;2024-01-30T07:43:11;6.60;99.90
24772;DHT22;12870;52.274;9.754;2024-01-30T07:45:36;6.70;99.90
24772;DHT22;12870;52.274;9.754;2024-01-30T07:48:05;6.70;99.90
24772;DHT22;12870;52.274;9.754;2024-01-30T07:50:30;6.70;99.90
24772;DHT22;12870;52.274;9.754;2024-01-30T07:52:56;6.70;99.90
24772;DHT22;12870;52.274;9.754;2024-01-30T07:55:22;6.80;99.90
24772;DHT22;12870;52.274;9.754;2024-01-30T07:57:57;6.90;99.90
24772;DHT22;12870;52.274;9.754;2024-01-30T08:00:23;6.90;99.90
24772;DHT22;12870;52.274;9.754;2024-01-30T08:02:48;6.90;99.90
24772;DHT22;12870;52.274;9.754;2024-01-30T08:05:14;7.00;99.90
24772;DHT22;12870;52.274;9.754;2024-01-30T08:07:41;7.10;99.90
24772;DHT22;12870;52.274;9.754;2024-01-30T08:10:08;7.00;99.90
24772;DHT22;12870;52.274;9.754;2024-01-30T08:12:33;7.10;99.90
24772;DHT22;12870;52.274;9.754;2024-01-30T08:14:59;7.00;99.90
24772;DHT22;12870;52.274;9.754;2024-01-30T08:17:24;7.10;99.90
24772;DHT22;12870;52.274;9.754;2024-01-30T08:19:50;7.10;99.90
24772;DHT22;12870;52.274;9.754;2024-01-30T08:22:15;7.20;99.90
24772;DHT22;12870;52.274;9.754;2024-01-30T08:24:41;7.20;99.90
24772;DHT22;12870;52.274;9.754;2024-01-30T08:27:07;7.20;99.90
24772;DHT22;12870;52.274;9.754;2024-01-30T08:29:35;7.20;99.90
24772;DHT22;12870;52.274;9.754;2024-01-30T08:32:01;7.30;99.90
24772;DHT22;12870;52.274;9.754;2024-01-30T08:34:27;7.30;99.90
24772;DHT22;12870;52.274;9.754;2024-01-30T08:36:53;7.30;99.90
24772;DHT22;12870;52.274;9.754;2024-01-30T08:39:19;7.40;99.90
24772;DHT22;12870;52.274;9.754;2024-01-30T08:41:45;7.40;99.90
24772;DHT22;12870;52.274;9.754;2024-01-30T08:44:10;7.40;99.90
24772;DHT22;12870;52.274;9.754;2024-01-30T08:46:36;7.50;99.90
24772;DHT22;12870;52.274;9.754;2024-01-30T08:49:02;7.60;99.90
24772;DHT22;12870;52.274;9.754;2024-01-30T08:51:29;7.60;99.90
24772;DHT22;12870;52.274;9.754;2024-01-30T08:53:55;7.70;99.90
24772;DHT22;12870;52.274;9.754;2024-01-30T08:56:20;7.70;99.90
24772;DHT22;12870;52.274;9.754;2024-01-30T08:58:46;7.80;99.90
24772;DHT22;12870;52.274;9.754;2024-01-30T09:01:11;7.90;99.90
24772;DHT22;12870;52.274;9.754;2024-01-30T09:03:37;7.90;99.90
24772;DHT22;12870;52.274;9.754;2024-01-30T09:06:08;7.80;99.90
24772;DHT22;12870;52.274;9.754;2024-01-30T09:08:34;7.90;99.90
24772;DHT22;12870;52.274;9.754;2024-01-30T09:10:59;7.90;99.90
24772;DHT22;12870;52.274;9.754;2024-01-30T09:13:25;8.00;99.90
24772;DHT22;12870;52.274;9.754;2024-01-30T09:15:50;8.00;99.90
24772;DHT22;12870;52.274;9.754;2024-01-30T09:18:16;8.20;99.90
24772;DHT22;12870;52.274;9.754;2024-01-30T09:20:41;8.20;99.90
24772;DHT22;12870;52.274;9.754;2024-01-30T09:23:07;8.30;99.90
24772;DHT22;12870;52.274;9.754;2024-01-30T09:25:33;8.40;99.90
24772;DHT22;12870;52.274;9.754;2024-01-30T09:27:59;8.50;99.90
24772;DHT22;12870;52.274;9.754;2024-01-30T09:30:25;8.60;99.90
24772;DHT22;12870;52.274;9.754;2024-01-30T09:32:50;8.60;99.90
24772;DHT22;12870;52.274;9.754;2024-01-30T09:35:16;8.60;99.90
24772;DHT22;12870;52.274;9.754;2024-01-30T09:37:41;8.80;99.90
24772;DHT22;12870;52.274;9.754;2024-01-30T09:40:07;8.80;99.90
24772;DHT22;12870;52.274;9.754;2024-01-30T09:42:34;9.00;99.90
24772;DHT22;12870;52.274;9.754;2024-01-30T09:45:04;9.10;99.90
24772;DHT22;12870;52.274;9.754;2024-01-30T09:47:41;9.20;99.90
24772;DHT22;12870;52.274;9.754;2024-01-30T09:50:09;9.40;99.90
24772;DHT22;12870;52.274;9.754;2024-01-30T09:52:35;9.40;99.90
24772;DHT22;12870;52.274;9.754;2024-01-30T09:55:01;9.40;99.90
24772;DHT22;12870;52.274;9.754;2024-01-30T09:57:26;9.40;99.90
24772;DHT22;12870;52.274;9.754;2024-01-30T09:59:52;9.50;99.90
24772;DHT22;12870;52.274;9.754;2024-01-30T10:02:20;9.60;99.90
24772;DHT22;12870;52.274;9.754;2024-01-30T10:04:48;9.70;99.90
24772;DHT22;12870;52.274;9.754;2024-01-30T10:07:14;9.80;99.90
24772;DHT22;12870;52.274;9.754;2024-01-30T10:09:40;9.80;99.90
24772;DHT22;12870;52.274;9.754;2024-01-30T10:12:06;9.90;99.90
24772;DHT22;12870;52.274;9.754;2024-01-30T10:14:31;10.00;99.90
24772;DHT22;12870;52.274;9.754;2024-01-30T10:16:58;10.10;99.90
24772;DHT22;12870;52.274;9.754;2024-01-30T10:19:23;10.20;99.90
24772;DHT22;12870;52.274;9.754;2024-01-30T10:21:49;10.30;99.90
24772;DHT22;12870;52.274;9.754;2024-01-30T10:24:14;10.30;99.90
24772;DHT22;12870;52.274;9.754;2024-01-30T10:26:43;10.30;99.90
24772;DHT22;12870;52.274;9.754;2024-01-30T10:29:08;10.40;99.90
24772;DHT22;12870;52.274;9.754;2024-01-30T10:31:34;10.40;99.90
24772;DHT22;12870;52.274;9.754;2024-01-30T10:34:00;10.50;99.90
24772;DHT22;12870;52.274;9.754;2024-01-30T10:36:28;10.60;99.90
24772;DHT22;12870;52.274;9.754;2024-01-30T10:38:57;10.70;99.90
24772;DHT22;12870;52.274;9.754;2024-01-30T10:41:27;10.80;99.90
24772;DHT22;12870;52.274;9.754;2024-01-30T10:44:12;10.90;99.90
24772;DHT22;12870;52.274;9.754;2024-01-30T10:46:42;11.10;99.90
24772;DHT22;12870;52.274;9.754;2024-01-30T10:49:11;11.20;99.90
24772;DHT22;12870;52.274;9.754;2024-01-30T10:51:38;11.30;99.90
24772;DHT22;12870;52.274;9.754;2024-01-30T10:54:05;11.40;99.90
24772;DHT22;12870;52.274;9.754;2024-01-30T10:56:32;11.40;99.90
24772;DHT22;12870;52.274;9.754;2024-01-30T10:58:59;11.50;99.90
24772;DHT22;12870;52.274;9.754;2024-01-30T11:01:25;11.70;99.90
24772;DHT22;12870;52.274;9.754;2024-01-30T11:03:53;11.80;99.90
24772;DHT22;12870;52.274;9.754;2024-01-30T11:06:22;11.80;99.90
24772;DHT22;12870;52.274;9.754;2024-01-30T11:09:03;11.80;99.90
24772;DHT22;12870;52.274;9.754;2024-01-30T11:11:29;11.70;99.90
24772;DHT22;12870;52.274;9.754;2024-01-30T11:13:55;11.80;99.90
24772;DHT22;12870;52.274;9.754;2024-01-30T11:16:20;11.80;99.90
24772;DHT22;12870;52.274;9.754;2024-01-30T11:18:50;11.80;99.90
24772;DHT22;12870;52.274;9.754;2024-01-30T11:21:17;11.90;99.90
24772;DHT22;12870;52.274;9.754;2024-01-30T11:23:42;11.90;99.90
24772;DHT22;12870;52.274;9.754;2024-01-30T11:26:10;11.90;99.90
24772;DHT22;12870;52.274;9.754;2024-01-30T11:28:37;11.90;99.90
24772;DHT22;12870;52.274;9.754;2024-01-30T11:31:07;11.90;99.90
24772;DHT22;12870;52.274;9.754;2024-01-30T11:33:33;11.90;99.90
24772;DHT22;12870;52.274;9.754;2024-01-30T11:36:00;11.90;99.90
24772;DHT22;12870;52.274;9.754;2024-01-30T11:38:26;12.00;99.90
24772;DHT22;12870;52.274;9.754;2024-01-30T11:40:55;12.00;99.90
24772;DHT22;12870;52.274;9.754;2024-01-30T11:43:24;12.00;99.90
24772;DHT22;12870;52.274;9.754;2024-01-30T11:45:49;12.00;99.90
24772;DHT22;12870;52.274;9.754;2024-01-30T11:48:15;12.00;99.90
24772;DHT22;12870;52.274;9.754;2024-01-30T11:50:41;12.00;99.90
24772;DHT22;12870;52.274;9.754;2024-01-30T11:53:07;12.00;99.90
24772;DHT22;12870;52.274;9.754;2024-01-30T11:55:33;11.90;99.90
24772;DHT22;12870;52.274;9.754;2024-01-30T11:57:59;12.00;99.90
24772;DHT22;12870;52.274;9.754;2024-01-30T12:00:25;12.20;99.90
24772;DHT22;12870;52.274;9.754;2024-01-30T12:02:52;12.50;99.90
24772;DHT22;12870;52.274;9.754;2024-01-30T12:05:21;13.20;99.90
24772;DHT22;12870;52.274;9.754;2024-01-30T12:07:47;14.10;99.90
24772;DHT22;12870;52.274;9.754;2024-01-30T12:10:13;14.80;99.90
24772;DHT22;12870;52.274;9.754;2024-01-30T12:12:48;15.10;99.90
24772;DHT22;12870;52.274;9.754;2024-01-30T12:15:14;15.40;99.90
24772;DHT22;12870;52.274;9.754;2024-01-30T12:17:40;16.00;99.90
24772;DHT22;12870;52.274;9.754;2024-01-30T12:20:13;16.80;99.90
24772;DHT22;12870;52.274;9.754;2024-01-30T12:22:43;17.40;99.90
24772;DHT22;12870;52.274;9.754;2024-01-30T12:25:10;17.60;99.90
24772;DHT22;12870;52.274;9.754;2024-01-30T12:27:40;18.00;99.90
24772;DHT22;12870;52.274;9.754;2024-01-30T12:30:08;18.30;99.90
24772;DHT22;12870;52.274;9.754;2024-01-30T12:32:42;18.50;99.90
24772;DHT22;12870;52.274;9.754;2024-01-30T12:35:15;18.20;99.90
24772;DHT22;12870;52.274;9.754;2024-01-30T12:37:43;17.90;99.90
24772;DHT22;12870;52.274;9.754;2024-01-30T12:40:09;17.40;99.90
24772;DHT22;12870;52.274;9.754;2024-01-30T12:42:36;16.40;99.90
24772;DHT22;12870;52.274;9.754;2024-01-30T12:45:03;15.80;99.90
24772;DHT22;12870;52.274;9.754;2024-01-30T12:47:29;15.40;99.90
24772;DHT22;12870;52.274;9.754;2024-01-30T12:49:55;15.10;99.90
24772;DHT22;12870;52.274;9.754;2024-01-30T12:52:21;15.00;99.90
24772;DHT22;12870;52.274;9.754;2024-01-30T12:54:48;14.90;99.90
24772;DHT22;12870;52.274;9.754;2024-01-30T12:57:13;15.00;99.90
24772;DHT22;12870;52.274;9.754;2024-01-30T12:59:39;14.90;99.90
24772;DHT22;12870;52.274;9.754;2024-01-30T13:02:05;15.10;99.90
24772;DHT22;12870;52.274;9.754;2024-01-30T13:04:31;15.10;99.90
24772;DHT22;12870;52.274;9.754;2024-01-30T13:06:57;14.90;99.90
24772;DHT22;12870;52.274;9.754;2024-01-30T13:09:23;14.80;99.90
24772;DHT22;12870;52.274;9.754;2024-01-30T13:11:49;14.60;99.90
24772;DHT22;12870;52.274;9.754;2024-01-30T13:14:16;14.20;99.90
24772;DHT22;12870;52.274;9.754;2024-01-30T13:16:42;14.20;99.90
24772;DHT22;12870;52.274;9.754;2024-01-30T13:19:07;14.10;99.90
24772;DHT22;12870;52.274;9.754;2024-01-30T13:21:33;13.90;99.90
24772;DHT22;12870;52.274;9.754;2024-01-30T13:23:58;13.80;99.90
24772;DHT22;12870;52.274;9.754;2024-01-30T13:26:24;13.70;99.90
24772;DHT22;12870;52.274;9.754;2024-01-30T13:28:49;13.60;99.90
24772;DHT22;12870;52.274;9.754;2024-01-30T13:31:15;13.70;99.90
24772;DHT22;12870;52.274;9.754;2024-01-30T13:33:41;13.60;99.90
24772;DHT22;12870;52.274;9.754;2024-01-30T13:36:08;13.50;99.90
24772;DHT22;12870;52.274;9.754;2024-01-30T13:38:34;13.30;99.90
24772;DHT22;12870;52.274;9.754;2024-01-30T13:41:00;13.10;99.90
24772;DHT22;12870;52.274;9.754;2024-01-30T13:43:25;13.00;99.90
24772;DHT22;12870;52.274;9.754;2024-01-30T13:45:51;13.00;99.90
24772;DHT22;12870;52.274;9.754;2024-01-30T13:48:17;13.00;99.90
24772;DHT22;12870;52.274;9.754;2024-01-30T13:50:43;13.00;99.90
24772;DHT22;12870;52.274;9.754;2024-01-30T13:53:08;13.00;99.90
24772;DHT22;12870;52.274;9.754;2024-01-30T13:55:34;12.90;99.90
24772;DHT22;12870;52.274;9.754;2024-01-30T13:58:00;12.80;99.90
24772;DHT22;12870;52.274;9.754;2024-01-30T14:00:27;12.70;99.90
24772;DHT22;12870;52.274;9.754;2024-01-30T14:02:52;12.60;99.90
24772;DHT22;12870;52.274;9.754;2024-01-30T14:05:20;12.60;99.90
24772;DHT22;12870;52.274;9.754;2024-01-30T14:07:46;12.60;99.90
24772;DHT22;12870;52.274;9.754;2024-01-30T14:10:12;12.60;99.90
24772;DHT22;12870;52.274;9.754;2024-01-30T14:12:38;12.60;99.90
24772;DHT22;12870;52.274;9.754;2024-01-30T14:15:04;12.60;99.90
24772;DHT22;12870;52.274;9.754;2024-01-30T14:17:30;12.60;99.90
24772;DHT22;12870;52.274;9.754;2024-01-30T14:19:55;12.60;99.90
24772;DHT22;12870;52.274;9.754;2024-01-30T14:22:21;12.50;99.90
24772;DHT22;12870;52.274;9.754;2024-01-30T14:24:47;12.60;99.90
24772;DHT22;12870;52.274;9.754;2024-01-30T14:27:12;12.50;99.90
24772;DHT22;12870;52.274;9.754;2024-01-30T14:29:38;12.50;99.90
24772;DHT22;12870;52.274;9.754;2024-01-30T14:32:04;12.50;99.90
24772;DHT22;12870;52.274;9.754;2024-01-30T14:34:30;12.50;99.90
24772;DHT22;12870;52.274;9.754;2024-01-30T14:36:56;12.50;99.90
24772;DHT22;12870;52.274;9.754;2024-01-30T14:39:21;12.50;99.90
24772;DHT22;12870;52.274;9.754;2024-01-30T14:41:47;12.50;99.90
24772;DHT22;12870;52.274;9.754;2024-01-30T14:44:13;12.50;99.90
24772;DHT22;12870;52.274;9.754;2024-01-30T14:46:39;12.50;99.90
24772;DHT22;12870;52.274;9.754;2024-01-30T14:49:05;12.40;99.90
24772;DHT22;12870;52.274;9.754;2024-01-30T14:51:31;12.50;99.90
24772;DHT22;12870;52.274;9.754;2024-01-30T14:53:58;12.40;99.90
24772;DHT22;12870;52.274;9.754;2024-01-30T14:56:24;12.40;99.90
24772;DHT22;12870;52.274;9.754;2024-01-30T14:58:49;12.40;99.90
24772;DHT22;12870;52.274;9.754;2024-01-30T15:01:15;12.40;99.90
24772;DHT22;12870;52.274;9.754;2024-01-30T15:03:41;12.30;99.90
24772;DHT22;12870;52.274;9.754;2024-01-30T15:06:08;12.30;99.90
24772;DHT22;12870;52.274;9.754;2024-01-30T15:08:33;12.30;99.90
24772;DHT22;12870;52.274;9.754;2024-01-30T15:10:59;12.20;99.90
24772;DHT22;12870;52.274;9.754;2024-01-30T15:13:25;12.20;99.90
24772;DHT22;12870;52.274;9.754;2024-01-30T15:15:50;12.10;99.90
24772;DHT22;12870;52.274;9.754;2024-01-30T15:18:16;12.00;99.90
24772;DHT22;12870;52.274;9.754;2024-01-30T15:20:41;11.90;99.90
24772;DHT22;12870;52.274;9.754;2024-01-30T15:23:07;11.90;99.90
24772;DHT22;12870;52.274;9.754;2024-01-30T15:25:33;11.90;99.90
24772;DHT22;12870;52.274;9.754;2024-01-30T15:27:58;11.80;99.90
24772;DHT22;12870;52.274;9.754;2024-01-30T15:30:24;11.70;99.90
24772;DHT22;12870;52.274;9.754;2024-01-30T15:32:49;11.80;99.90